Time;durP1;ratioP1;P1;durP2;ratioP2;P2;SDS_P1;SDS_P2;PMS_P1;PMS_P2;Temp;Humidity;BMP_temperature;BMP_pressure;BME280_temperature;BME280_humidity;BME280_pressure;Samples;Min_cycle;Max_cycle;Signal;HPM_P1;HPM_P2
2022/03/08 00:01:28;;;;;;;9.93;6.10;;;;;;;3.25;48.27;102279.91;5213869;28;20501;-75
2022/03/08 00:04:00;;;;;;;11.20;6.53;;;;;;;3.28;48.30;102276.44;5211150;28;20072;-75
2022/03/08 00:06:31;;;;;;;9.00;6.67;;;;;;;3.25;48.34;102270.41;5210196;28;20029;-75
2022/03/08 00:09:02;;;;;;;12.47;7.33;;;;;;;3.22;48.60;102265.25;5211470;28;20495;-74
2022/03/08 00:11:33;;;;;;;8.40;6.37;;;;;;;3.21;48.29;102267.88;5211264;28;20539;-75
2022/03/08 00:14:05;;;;;;;10.90;6.50;;;;;;;3.26;48.64;102266.09;5210846;28;20535;-75
2022/03/08 00:16:36;;;;;;;10.37;5.87;;;;;;;3.26;49.08;102272.13;5210902;28;20058;-75
2022/03/08 00:19:07;;;;;;;12.03;6.83;;;;;;;3.24;48.61;102267.84;5213751;28;20537;-75
2022/03/08 00:21:40;;;;;;;11.90;6.53;;;;;;;3.25;48.64;102265.22;5232028;28;20033;-75
2022/03/08 00:24:12;;;;;;;10.90;6.60;;;;;;;3.16;48.74;102264.44;5231499;28;20033;-75
2022/03/08 00:26:43;;;;;;;9.90;6.70;;;;;;;3.17;48.54;102263.56;5231582;28;20634;-75
2022/03/08 00:29:14;;;;;;;12.30;7.10;;;;;;;3.24;48.66;102258.34;5231764;28;20295;-75
2022/03/08 00:31:46;;;;;;;10.00;6.60;;;;;;;3.24;48.84;102265.25;5229500;28;20034;-75
2022/03/08 00:34:17;;;;;;;13.70;7.20;;;;;;;3.04;47.67;102255.00;5230809;28;20037;-75
2022/03/08 00:36:48;;;;;;;11.43;6.40;;;;;;;2.97;48.72;102260.19;5231766;28;20043;-75
2022/03/08 00:39:19;;;;;;;11.47;6.20;;;;;;;2.83;48.60;102257.69;5231178;28;20048;-75
2022/03/08 00:41:51;;;;;;;9.53;6.23;;;;;;;2.78;48.98;102249.94;5231499;28;20025;-75
2022/03/08 00:44:22;;;;;;;8.10;6.17;;;;;;;2.93;49.09;102260.25;5231072;28;20032;-75
2022/03/08 00:46:53;;;;;;;11.70;7.17;;;;;;;2.87;48.91;102251.63;5222734;28;20030;-75
2022/03/08 00:49:24;;;;;;;10.23;5.83;;;;;;;2.84;48.54;102251.66;5210344;28;20033;-75
2022/03/08 00:51:56;;;;;;;8.37;6.10;;;;;;;2.83;49.19;102252.50;5210222;28;20100;-75
2022/03/08 00:54:27;;;;;;;9.87;6.33;;;;;;;2.87;48.55;102249.03;5210539;28;20499;-75
2022/03/08 00:56:59;;;;;;;9.37;6.07;;;;;;;2.80;48.21;102244.75;5210120;28;20137;-75
2022/03/08 00:59:30;;;;;;;11.77;6.30;;;;;;;2.83;48.45;102262.84;5210928;28;20069;-75
2022/03/08 01:02:02;;;;;;;8.30;5.87;;;;;;;2.75;48.98;102260.31;5208710;28;20551;-75
2022/03/08 01:04:34;;;;;;;8.13;5.83;;;;;;;2.71;48.25;102252.56;5210587;28;20050;-75
2022/03/08 01:07:07;;;;;;;14.53;7.20;;;;;;;2.80;48.02;102262.88;5210296;28;20371;-75
2022/03/08 01:09:38;;;;;;;8.90;6.40;;;;;;;2.61;47.94;102249.16;5208523;28;20021;-75
2022/03/08 01:12:10;;;;;;;9.17;6.73;;;;;;;2.79;48.17;102248.22;5210545;28;20125;-75
2022/03/08 01:14:41;;;;;;;9.73;6.03;;;;;;;2.69;47.68;102259.47;5210439;28;20048;-75
2022/03/08 01:17:12;;;;;;;7.93;6.90;;;;;;;2.70;48.57;102258.59;5213816;28;20032;-75
2022/03/08 01:19:44;;;;;;;7.97;6.20;;;;;;;2.62;47.93;102248.28;5210060;28;20025;-75
2022/03/08 01:22:15;;;;;;;8.53;5.47;;;;;;;2.70;47.91;102256.88;5210033;28;20029;-75
2022/03/08 01:24:46;;;;;;;9.67;6.70;;;;;;;2.53;47.83;102231.91;5210241;28;20057;-75
2022/03/08 01:27:18;;;;;;;8.77;6.07;;;;;;;2.53;48.08;102238.84;5208227;28;20076;-75
2022/03/08 01:29:50;;;;;;;9.90;6.20;;;;;;;2.76;47.58;102245.63;5210076;28;20464;-75
2022/03/08 01:32:21;;;;;;;10.63;6.37;;;;;;;2.63;48.17;102245.69;5207634;28;20064;-75
2022/03/08 01:34:52;;;;;;;17.13;7.40;;;;;;;2.60;48.37;102240.50;5209970;28;20030;-75
2022/03/08 01:37:23;;;;;;;9.73;6.27;;;;;;;2.58;47.60;102244.00;5209210;28;20033;-75
2022/03/08 01:39:55;;;;;;;8.57;5.70;;;;;;;2.48;47.65;102227.66;5209685;28;20022;-74
2022/03/08 01:42:26;;;;;;;9.30;5.77;;;;;;;2.59;47.95;102228.47;5209573;28;20066;-75
2022/03/08 01:44:57;;;;;;;12.37;6.50;;;;;;;2.55;48.31;102229.31;5209296;28;20032;-75
2022/03/08 01:47:29;;;;;;;9.23;6.17;;;;;;;2.42;48.04;102218.19;5208493;28;20384;-75
2022/03/08 01:50:00;;;;;;;9.50;6.40;;;;;;;2.48;48.08;102219.91;5209566;28;20045;-75
2022/03/08 01:52:32;;;;;;;7.83;5.67;;;;;;;2.46;48.06;102216.44;5209243;28;20080;-75
2022/03/08 01:55:05;;;;;;;8.60;6.27;;;;;;;2.41;48.05;102211.25;5208638;28;20057;-75
2022/03/08 01:57:36;;;;;;;9.00;6.00;;;;;;;2.38;48.22;102212.16;5209682;28;20383;-75
2022/03/08 02:00:12;;;;;;;11.23;5.57;;;;;;;2.35;48.92;102201.81;5207637;28;20372;-75
2022/03/08 02:02:44;;;;;;;12.70;6.63;;;;;;;2.38;48.45;102211.28;5226559;28;20025;-75
2022/03/08 02:05:15;;;;;;;6.70;5.70;;;;;;;2.33;48.49;102206.13;5228406;28;20300;-75
2022/03/08 02:07:47;;;;;;;8.70;6.10;;;;;;;2.30;48.75;102206.16;5228848;28;20147;-75
2022/03/08 02:10:18;;;;;;;7.33;6.30;;;;;;;2.23;48.59;102209.63;5229299;28;20476;-75
2022/03/08 02:12:50;;;;;;;10.53;6.13;;;;;;;2.22;49.19;102188.06;5229962;28;20516;-75
2022/03/08 02:15:24;;;;;;;7.73;6.10;;;;;;;2.13;48.98;102182.94;5228167;28;20461;-75
2022/03/08 02:17:58;;;;;;;8.98;5.95;;;;;;;2.23;48.93;102196.69;5230377;28;20053;-75
2022/03/08 02:20:30;;;;;;;8.07;5.90;;;;;;;2.22;49.16;102197.53;5228405;28;20633;-75
2022/03/08 02:23:01;;;;;;;8.97;6.00;;;;;;;2.22;49.06;102192.38;5229548;28;20331;-77
2022/03/08 02:25:32;;;;;;;7.20;6.20;;;;;;;2.23;48.76;102189.81;5229689;28;20112;-75
2022/03/08 02:28:04;;;;;;;13.37;6.00;;;;;;;2.26;49.25;102194.09;5229679;28;20030;-75
2022/03/08 02:30:35;;;;;;;10.57;6.00;;;;;;;2.21;49.37;102201.00;5232449;28;20460;-75
2022/03/08 02:33:07;;;;;;;7.33;5.60;;;;;;;2.20;49.49;102189.78;5233171;28;20045;-75
2022/03/08 02:35:38;;;;;;;7.43;5.87;;;;;;;2.14;48.77;102194.97;5233950;28;20075;-75
2022/03/08 02:38:10;;;;;;;10.93;6.43;;;;;;;2.12;49.35;102184.66;5233208;28;20331;-75
2022/03/08 02:40:43;;;;;;;8.17;5.60;;;;;;;2.05;49.87;102175.19;5234215;28;20395;-75
2022/03/08 02:43:15;;;;;;;7.17;6.03;;;;;;;2.09;49.50;102179.50;5233586;28;20538;-75
2022/03/08 02:45:46;;;;;;;11.90;6.53;;;;;;;2.13;49.08;102178.59;5232605;28;20354;-75
2022/03/08 02:48:17;;;;;;;9.73;6.60;;;;;;;2.10;49.55;102170.88;5233398;28;20284;-75
2022/03/08 02:50:49;;;;;;;12.83;6.33;;;;;;;2.22;49.38;102171.69;5233734;28;20029;-75
2022/03/08 02:53:20;;;;;;;10.87;6.67;;;;;;;2.16;50.01;102168.25;5234004;28;20030;-75
2022/03/08 02:55:53;;;;;;;11.17;6.50;;;;;;;2.01;49.41;102163.13;5237565;28;20185;-75
2022/03/08 02:58:24;;;;;;;8.67;6.10;;;;;;;1.95;49.97;102168.31;5232841;28;20038;-74
2022/03/08 03:00:55;;;;;;;7.60;6.53;;;;;;;1.95;49.76;102164.03;5231062;28;20342;-74
2022/03/08 03:03:26;;;;;;;10.03;6.47;;;;;;;1.97;49.84;102153.69;5233335;28;20108;-75
2022/03/08 03:05:58;;;;;;;9.33;6.73;;;;;;;1.81;50.22;102151.13;5232859;28;20035;-75
2022/03/08 03:08:29;;;;;;;8.73;6.47;;;;;;;1.95;50.25;102153.69;5233575;28;20083;-75
2022/03/08 03:11:00;;;;;;;8.97;6.27;;;;;;;1.91;50.39;102151.97;5232625;28;20025;-75
2022/03/08 03:13:31;;;;;;;8.13;6.10;;;;;;;1.87;50.25;102145.09;5233011;28;20026;-75
2022/03/08 03:16:03;;;;;;;10.27;6.90;;;;;;;1.89;49.91;102136.47;5231617;28;20061;-75
2022/03/08 03:18:34;;;;;;;10.10;5.87;;;;;;;1.88;50.42;102146.81;5231954;28;20116;-75
2022/03/08 03:21:05;;;;;;;9.23;6.17;;;;;;;1.84;50.42;102137.31;5237970;28;20113;-75
2022/03/08 03:23:36;;;;;;;12.80;7.00;;;;;;;1.80;51.06;102128.72;5232955;28;20037;-75
2022/03/08 03:26:08;;;;;;;8.37;6.30;;;;;;;1.73;50.74;102125.28;5232862;28;20045;-75
2022/03/08 03:28:39;;;;;;;9.83;6.17;;;;;;;1.66;50.78;102111.53;5230868;28;20048;-75
2022/03/08 03:31:11;;;;;;;8.90;6.60;;;;;;;1.80;50.89;102118.38;5231762;28;20484;-74
2022/03/08 03:33:42;;;;;;;8.20;6.30;;;;;;;1.67;50.55;102104.66;5231091;28;20025;-75
2022/03/08 03:36:14;;;;;;;8.87;6.07;;;;;;;1.68;51.06;102112.41;5231233;28;20026;-75
2022/03/08 03:38:45;;;;;;;8.50;6.50;;;;;;;1.61;51.35;102102.94;5232607;28;20069;-75
2022/03/08 03:41:16;;;;;;;10.17;6.80;;;;;;;1.54;51.37;102109.84;5231860;28;20026;-75
2022/03/08 03:43:48;;;;;;;8.53;6.93;;;;;;;1.57;51.75;102112.41;5232532;28;20539;-75
2022/03/08 03:46:19;;;;;;;8.80;6.50;;;;;;;1.46;51.56;102093.50;5231448;28;20036;-75
2022/03/08 03:48:50;;;;;;;8.27;6.13;;;;;;;1.63;51.78;102111.53;5232671;28;20029;-75
2022/03/08 03:51:21;;;;;;;9.63;6.70;;;;;;;1.52;51.42;102110.72;5231769;28;20097;-74
2022/03/08 03:53:53;;;;;;;10.00;6.87;;;;;;;1.54;51.68;102112.41;5232520;28;20026;-74
2022/03/08 03:56:24;;;;;;;9.27;6.60;;;;;;;1.54;51.71;102107.25;5230541;28;20527;-75
2022/03/08 03:58:55;;;;;;;9.10;7.00;;;;;;;1.67;51.56;102118.44;5232389;28;20029;-75
2022/03/08 04:01:26;;;;;;;8.77;7.13;;;;;;;1.68;51.57;102109.81;5230609;28;20033;-74
2022/03/08 04:03:58;;;;;;;9.43;6.23;;;;;;;1.73;51.82;102111.53;5231830;28;20059;-74
2022/03/08 04:06:29;;;;;;;10.90;7.03;;;;;;;1.55;51.39;102103.78;5231995;28;20033;-75
2022/03/08 04:09:02;;;;;;;11.07;7.27;;;;;;;1.45;51.65;102108.13;5232207;28;20048;-75
2022/03/08 04:11:33;;;;;;;8.10;6.40;;;;;;;1.48;52.01;102104.69;5230077;28;20025;-74
2022/03/08 04:14:04;;;;;;;8.27;6.40;;;;;;;1.44;51.77;102109.00;5231903;28;20379;-74
2022/03/08 04:16:36;;;;;;;11.90;7.07;;;;;;;1.44;51.21;102111.59;5231141;28;20053;-74
2022/03/08 04:19:07;;;;;;;8.97;6.63;;;;;;;1.49;51.42;102106.41;5231325;28;20053;-74
2022/03/08 04:21:38;;;;;;;12.17;7.30;;;;;;;1.44;51.08;102108.13;5232476;28;20422;-75
2022/03/08 04:24:10;;;;;;;10.70;7.77;;;;;;;1.38;51.20;102102.97;5231217;28;20025;-75
2022/03/08 04:26:41;;;;;;;11.47;7.53;;;;;;;1.38;51.73;102095.25;5232064;28;20036;-75
2022/03/08 04:29:12;;;;;;;8.10;6.57;;;;;;;1.42;51.83;102108.13;5231354;28;20018;-75
2022/03/08 04:31:44;;;;;;;10.97;7.73;;;;;;;1.33;51.87;102101.25;5230894;28;20419;-75
2022/03/08 04:34:15;;;;;;;10.63;7.33;;;;;;;1.33;52.26;102097.81;5231163;28;20053;-75
2022/03/08 04:36:46;;;;;;;9.50;6.47;;;;;;;1.27;52.18;102095.25;5231606;28;20156;-75
2022/03/08 04:39:18;;;;;;;10.93;7.40;;;;;;;1.30;52.07;102102.97;5231500;28;20381;-75
2022/03/08 04:41:50;;;;;;;9.07;7.87;;;;;;;1.32;52.37;102109.00;5229560;28;20025;-75
2022/03/08 04:44:21;;;;;;;10.90;7.00;;;;;;;1.22;52.23;102102.13;5231341;28;20014;-75
2022/03/08 04:46:52;;;;;;;10.90;7.07;;;;;;;1.28;52.31;102104.69;5230289;28;20033;-75
2022/03/08 04:49:25;;;;;;;9.70;6.83;;;;;;;1.29;52.80;102098.69;5230886;28;20021;-75
2022/03/08 04:51:56;;;;;;;11.00;7.53;;;;;;;1.12;52.50;102093.53;5230491;28;20053;-75
2022/03/08 04:54:27;;;;;;;10.40;7.70;;;;;;;1.21;52.23;102096.09;5230392;28;20296;-75
2022/03/08 04:56:58;;;;;;;9.20;7.10;;;;;;;1.25;52.49;102100.41;5230590;28;20021;-75
2022/03/08 04:59:30;;;;;;;10.10;7.37;;;;;;;1.31;52.41;102095.22;5230048;28;20122;-75
2022/03/08 05:02:02;;;;;;;20.33;9.13;;;;;;;1.40;52.44;102104.69;5229320;28;20381;-75
2022/03/08 05:04:33;;;;;;;12.30;7.57;;;;;;;1.37;52.61;102102.13;5231359;28;20049;-75
2022/03/08 05:07:04;;;;;;;9.80;7.27;;;;;;;1.33;52.40;102090.06;5233014;28;20091;-75
2022/03/08 05:09:35;;;;;;;9.03;6.23;;;;;;;1.27;52.04;102092.66;5232324;28;20108;-75
2022/03/08 05:12:08;;;;;;;14.67;7.13;;;;;;;1.25;52.24;102100.41;5229416;28;20111;-75
2022/03/08 05:14:39;;;;;;;12.00;7.33;;;;;;;1.21;52.30;102103.84;5230176;28;20087;-75
2022/03/08 05:17:11;;;;;;;10.37;7.33;;;;;;;1.17;52.53;102094.38;5229869;28;20284;-75
2022/03/08 05:19:42;;;;;;;11.53;7.20;;;;;;;1.18;52.73;102091.81;5212466;28;20716;-75
2022/03/08 05:22:14;;;;;;;9.30;6.70;;;;;;;1.20;52.95;102087.47;5230800;28;20472;-75
2022/03/08 05:24:45;;;;;;;10.97;7.20;;;;;;;1.06;52.68;102068.56;5230036;28;20087;-75
2022/03/08 05:27:16;;;;;;;8.47;6.93;;;;;;;1.18;52.83;102085.78;5230606;28;20064;-75
2022/03/08 05:29:47;;;;;;;16.47;7.60;;;;;;;1.16;52.78;102075.44;5229825;28;20032;-75
2022/03/08 05:32:19;;;;;;;9.83;6.97;;;;;;;1.09;53.07;102073.72;5230196;28;20108;-75
2022/03/08 05:34:50;;;;;;;12.53;6.87;;;;;;;1.26;52.71;102078.00;5231006;28;20033;-75
2022/03/08 05:37:21;;;;;;;11.37;7.17;;;;;;;1.23;52.35;102085.75;5229273;28;20033;-75
2022/03/08 05:39:52;;;;;;;10.67;7.80;;;;;;;1.12;53.20;102065.97;5230604;28;20040;-75
2022/03/08 05:42:24;;;;;;;8.93;6.83;;;;;;;1.13;53.06;102077.16;5229648;28;20057;-74
2022/03/08 05:44:55;;;;;;;14.77;7.53;;;;;;;1.14;52.88;102082.34;5229847;28;20034;-75
2022/03/08 05:47:26;;;;;;;11.07;7.03;;;;;;;1.10;53.47;102075.44;5227959;28;20049;-75
2022/03/08 05:49:57;;;;;;;8.90;7.27;;;;;;;1.08;53.28;102077.19;5229604;28;20250;-75
2022/03/08 05:52:29;;;;;;;11.80;6.60;;;;;;;1.09;52.88;102078.88;5229940;28;20022;-75
2022/03/08 05:55:00;;;;;;;11.07;7.93;;;;;;;1.14;52.78;102089.19;5229929;28;20447;-75
2022/03/08 05:57:31;;;;;;;10.80;7.07;;;;;;;1.03;53.11;102078.91;5230534;28;20071;-75
2022/03/08 06:00:05;;;;;;;10.73;6.67;;;;;;;1.04;52.98;102080.59;5228722;28;20036;-75
2022/03/08 06:02:36;;;;;;;14.30;7.47;;;;;;;1.05;52.79;102077.16;5230097;28;20116;-75
2022/03/08 06:05:08;;;;;;;9.57;7.43;;;;;;;1.03;53.19;102078.91;5229444;28;20419;-75
2022/03/08 06:07:39;;;;;;;20.47;7.70;;;;;;;0.98;53.33;102076.28;5228518;28;20052;-72
2022/03/08 06:10:11;;;;;;;13.67;7.70;;;;;;;1.05;53.21;102077.16;5228507;28;20025;-75
2022/03/08 06:12:44;;;;;;;13.27;8.57;;;;;;;0.94;53.33;102080.59;5230032;28;20029;-73
2022/03/08 06:15:15;;;;;;;11.77;7.50;;;;;;;1.01;53.65;102075.44;5227450;28;20091;-71
2022/03/08 06:17:46;;;;;;;9.13;6.70;;;;;;;1.02;53.58;102079.75;5230377;28;20307;-79
2022/03/08 06:20:17;;;;;;;14.50;8.03;;;;;;;0.96;53.71;102073.72;5223382;28;20056;-79
2022/03/08 06:22:49;;;;;;;14.40;7.90;;;;;;;0.97;53.72;102084.91;5217306;28;20022;-78
2022/03/08 06:25:20;;;;;;;9.10;6.77;;;;;;;1.00;54.01;102084.91;5207440;28;20100;-74
2022/03/08 06:27:51;;;;;;;11.53;7.47;;;;;;;0.93;53.67;102089.22;5209121;28;20116;-74
2022/03/08 06:30:23;;;;;;;9.40;7.27;;;;;;;0.87;53.81;102070.28;5210586;28;20042;-74
2022/03/08 06:32:54;;;;;;;14.30;7.60;;;;;;;0.96;53.66;102088.38;5225971;28;20108;-74
2022/03/08 06:35:25;;;;;;;9.87;7.03;;;;;;;1.02;53.66;102083.19;5229177;28;20469;-73
2022/03/08 06:37:56;;;;;;;11.07;6.70;;;;;;;1.03;53.79;102082.31;5228377;28;20091;-73
2022/03/08 06:40:28;;;;;;;13.20;6.80;;;;;;;1.08;53.43;102083.19;5229433;28;20021;-73
2022/03/08 06:42:59;;;;;;;10.00;7.43;;;;;;;1.10;53.06;102074.59;5228541;28;20036;-74
2022/03/08 06:45:30;;;;;;;10.17;6.60;;;;;;;1.03;53.59;102078.91;5229047;28;20029;-80
2022/03/08 06:48:02;;;;;;;12.03;6.43;;;;;;;1.10;53.35;102064.28;5227910;28;20017;-78
2022/03/08 06:50:33;;;;;;;11.40;6.80;;;;;;;1.22;53.33;102081.47;5229184;28;20037;-77
2022/03/08 06:53:04;;;;;;;13.80;7.60;;;;;;;1.19;53.26;102070.28;5210630;28;20065;-75
2022/03/08 06:55:35;;;;;;;9.87;6.97;;;;;;;1.24;52.88;102072.84;5208655;28;20022;-78
2022/03/08 06:58:07;;;;;;;12.40;8.07;;;;;;;1.34;53.11;102094.38;5214074;28;20036;-75
2022/03/08 07:00:38;;;;;;;10.73;6.33;;;;;;;1.40;52.61;102088.31;5216132;28;20656;-76
2022/03/08 07:03:10;;;;;;;8.43;6.37;;;;;;;1.40;52.72;102078.00;5218142;28;20558;-77
2022/03/08 07:05:41;;;;;;;10.17;7.07;;;;;;;1.48;52.59;102076.28;5216406;28;20021;-77
2022/03/08 07:08:12;;;;;;;10.47;7.40;;;;;;;1.52;51.99;102069.41;5223668;28;20782;-75
2022/03/08 07:10:44;;;;;;;13.13;7.53;;;;;;;1.59;51.87;102078.81;5211336;28;20033;-75
2022/03/08 07:13:15;;;;;;;8.80;6.73;;;;;;;1.63;51.84;102072.81;5206138;28;20045;-79
2022/03/08 07:15:46;;;;;;;15.63;7.93;;;;;;;1.73;51.28;102072.78;5213634;28;20686;-80
2022/03/08 07:18:17;;;;;;;11.20;7.17;;;;;;;1.77;51.05;102082.25;5221321;28;20037;-80
2022/03/08 07:20:49;;;;;;;12.53;7.33;;;;;;;1.85;51.09;102088.22;5221860;28;20033;-78
2022/03/08 07:23:21;;;;;;;12.63;7.03;;;;;;;1.83;50.92;102071.91;5221840;28;20017;-79
2022/03/08 07:25:52;;;;;;;10.80;6.97;;;;;;;2.00;50.95;102089.06;5212507;28;20041;-79
2022/03/08 07:28:23;;;;;;;10.23;6.63;;;;;;;2.05;50.11;102082.16;5211619;28;20021;-79
2022/03/08 07:30:55;;;;;;;14.37;7.63;;;;;;;2.17;49.96;102086.41;5211410;28;20076;-79
2022/03/08 07:33:26;;;;;;;12.57;6.97;;;;;;;2.30;49.82;102093.22;5212028;28;20021;-79
2022/03/08 07:35:58;;;;;;;15.03;8.33;;;;;;;2.37;49.35;102091.50;5211055;28;20041;-79
2022/03/08 07:38:29;;;;;;;11.23;6.43;;;;;;;2.47;48.82;102084.53;5212421;28;20037;-79
2022/03/08 07:41:02;;;;;;;10.03;6.83;;;;;;;2.62;48.92;102082.72;5211541;28;20088;-79
2022/03/08 07:43:36;;;;;;;9.83;7.30;;;;;;;2.78;48.61;102088.66;5212016;28;20469;-79
2022/03/08 07:46:09;;;;;;;10.80;6.38;;;;;;;2.89;48.13;102071.34;5210985;28;20273;-77
2022/03/08 07:48:40;;;;;;;11.63;6.43;;;;;;;3.12;47.57;102085.84;5211716;28;20105;-78
2022/03/08 07:51:11;;;;;;;9.83;6.63;;;;;;;3.29;46.68;102063.22;5211420;28;20371;-78
2022/03/08 07:53:43;;;;;;;9.43;6.87;;;;;;;3.81;45.53;102072.19;5212346;28;20042;-77
2022/03/08 07:56:14;;;;;;;10.50;6.13;;;;;;;4.43;44.30;102074.91;5211308;28;20606;-79
2022/03/08 07:58:46;;;;;;;9.70;6.00;;;;;;;4.72;42.79;102078.78;5211945;28;20037;-80
2022/03/08 08:01:18;;;;;;;11.73;7.13;;;;;;;4.95;41.93;102072.38;5210827;28;20037;-80
2022/03/08 08:03:49;;;;;;;7.77;6.20;;;;;;;5.26;41.66;102077.06;5211017;28;20042;-80
2022/03/08 08:06:20;;;;;;;9.87;5.90;;;;;;;5.55;41.07;102073.06;5193817;28;20030;-79
2022/03/08 08:08:52;;;;;;;13.67;6.53;;;;;;;5.64;40.81;102079.84;5210302;28;20065;-80
2022/03/08 08:11:23;;;;;;;6.93;5.43;;;;;;;5.90;40.63;102075.03;5211163;28;20473;-79
2022/03/08 08:13:54;;;;;;;7.67;5.90;;;;;;;6.12;39.64;102066.81;5211046;28;20036;-78
2022/03/08 08:16:25;;;;;;;9.10;6.13;;;;;;;6.75;39.18;102069.75;5211264;28;20037;-77
2022/03/08 08:18:58;;;;;;;7.50;5.20;;;;;;;7.18;38.03;102077.38;5220730;28;20408;-79
2022/03/08 08:21:29;;;;;;;8.20;5.80;;;;;;;7.75;36.28;102080.22;5213148;28;20030;-78
2022/03/08 08:24:01;;;;;;;9.30;5.63;;;;;;;8.34;35.84;102061.16;5210606;28;20488;-77
2022/03/08 08:26:32;;;;;;;7.33;5.70;;;;;;;8.68;34.36;102070.56;5214772;28;20026;-77
2022/03/08 08:29:03;;;;;;;8.33;4.93;;;;;;;9.15;33.62;102058.56;5211337;28;20452;-77
2022/03/08 08:31:35;;;;;;;6.30;5.37;;;;;;;9.66;32.80;102074.25;5209888;28;20030;-77
2022/03/08 08:34:06;;;;;;;13.60;5.20;;;;;;;9.59;32.07;102069.28;5210832;28;20029;-77
2022/03/08 08:36:38;;;;;;;9.30;5.97;;;;;;;9.96;31.75;102074.94;5210655;28;20424;-78
2022/03/08 08:39:09;;;;;;;8.87;5.27;;;;;;;10.55;31.70;102072.72;5211223;28;20057;-77
2022/03/08 08:41:42;;;;;;;10.47;5.50;;;;;;;11.03;30.10;102080.38;5210354;28;20029;-77
2022/03/08 08:44:13;;;;;;;8.17;4.83;;;;;;;11.25;29.76;102076.84;5209321;28;20392;-77
2022/03/08 08:46:45;;;;;;;6.50;5.30;;;;;;;11.77;29.35;102061.50;5208255;28;20072;-77
2022/03/08 08:49:17;;;;;;;7.70;4.97;;;;;;;11.26;28.88;102062.81;5209117;28;20250;-77
2022/03/08 08:51:48;;;;;;;10.03;4.90;;;;;;;11.12;28.98;102055.53;5210803;28;20035;-77
2022/03/08 08:54:19;;;;;;;7.50;5.23;;;;;;;11.62;28.58;102053.41;5208883;28;20040;-78
2022/03/08 08:56:50;;;;;;;7.10;5.03;;;;;;;11.04;28.44;102050.63;5210350;28;20030;-78
2022/03/08 08:59:22;;;;;;;8.33;4.20;;;;;;;11.17;28.15;102063.22;5209292;28;20105;-77
2022/03/08 09:01:53;;;;;;;13.97;4.80;;;;;;;11.65;27.53;102057.66;5210447;28;20033;-77
2022/03/08 09:04:24;;;;;;;10.93;4.57;;;;;;;12.49;27.18;102056.44;5210050;28;20045;-77
2022/03/08 09:06:56;;;;;;;6.07;4.43;;;;;;;12.78;26.37;102054.16;5210569;28;20049;-77
2022/03/08 09:09:27;;;;;;;7.50;4.60;;;;;;;13.05;26.11;102052.84;5209363;28;20042;-76
2022/03/08 09:11:59;;;;;;;7.73;4.73;;;;;;;13.51;25.06;102051.38;5208854;28;20362;-77
2022/03/08 09:14:30;;;;;;;8.63;4.00;;;;;;;13.52;25.03;102059.22;5209357;28;20033;-77
2022/03/08 09:17:01;;;;;;;7.73;4.27;;;;;;;13.93;24.70;102054.41;5209328;28;20022;-77
2022/03/08 09:19:33;;;;;;;7.20;4.97;;;;;;;13.69;24.13;102059.22;5209301;28;20036;-77
2022/03/08 09:22:04;;;;;;;7.57;3.87;;;;;;;13.46;24.94;102043.72;5209376;28;20096;-77
2022/03/08 09:24:37;;;;;;;8.07;4.97;;;;;;;14.42;23.76;102036.78;5210419;28;20053;-77
2022/03/08 09:27:08;;;;;;;10.80;4.60;;;;;;;14.76;23.34;102045.41;5209682;28;20101;-78
2022/03/08 09:29:40;;;;;;;18.37;5.63;;;;;;;15.58;22.58;102024.75;5209112;28;20033;-77
2022/03/08 09:32:11;;;;;;;6.17;4.70;;;;;;;15.42;22.86;102025.72;5211974;28;20030;-77
2022/03/08 09:34:43;;;;;;;8.10;4.90;;;;;;;14.87;22.83;102022.84;5211931;28;20052;-77
2022/03/08 09:37:14;;;;;;;4.73;3.80;;;;;;;14.72;22.73;102022.78;5207213;28;20032;-77
2022/03/08 09:39:45;;;;;;;8.23;4.80;;;;;;;14.65;23.21;102021.44;5209775;28;20649;-76
2022/03/08 09:42:17;;;;;;;11.50;4.27;;;;;;;14.33;23.39;102006.53;5209556;28;20038;-77
2022/03/08 09:44:48;;;;;;;6.67;4.10;;;;;;;15.36;22.61;102012.88;5211115;28;20025;-76
2022/03/08 09:47:20;;;;;;;5.93;3.97;;;;;;;15.68;21.71;102012.69;5213300;28;20052;-76
2022/03/08 09:49:51;;;;;;;5.93;4.73;;;;;;;16.02;22.00;102001.78;5229007;28;20393;-76
2022/03/08 09:52:22;;;;;;;6.30;3.93;;;;;;;15.47;21.67;102012.22;5225890;28;20075;-76
2022/03/08 09:54:54;;;;;;;8.23;4.30;;;;;;;15.06;21.46;102008.56;5222028;28;20075;-80
2022/03/08 09:57:25;;;;;;;6.57;3.90;;;;;;;15.63;21.29;102019.19;5217855;28;20022;-73
2022/03/08 09:59:57;;;;;;;6.33;4.33;;;;;;;15.92;21.14;102005.91;5229112;28;20034;-72
2022/03/08 10:02:48;;;;;;;5.97;4.37;;;;;;;16.44;20.37;102003.50;5229552;28;20116;-74
2022/03/08 10:05:25;;;;;;;6.80;4.13;;;;;;;16.85;20.79;102003.44;5228378;28;20053;-72
2022/03/08 10:08:13;;;;;;;10.00;4.37;;;;;;;17.88;20.11;102007.78;5229511;28;20026;-71
2022/03/08 10:10:58;;;;;;;10.27;4.10;;;;;;;15.59;21.35;102006.19;5226673;28;20119;-74
2022/03/08 10:13:37;;;;;;;;;;;;;;;16.47;20.46;101995.34;5209073;28;20038;-74
2022/03/08 10:16:26;;;;;;;9.63;3.87;;;;;;;15.57;21.53;102000.13;5222759;28;19924;-74
2022/03/08 10:19:02;;;;;;;9.27;4.43;;;;;;;14.69;23.05;101996.59;5217479;28;20033;-75
2022/03/08 10:21:44;;;;;;;8.43;4.40;;;;;;;13.97;22.47;101990.13;5215896;28;20444;-75
2022/03/08 10:24:28;;;;;;;10.40;4.10;;;;;;;14.02;23.35;101998.59;5219884;28;20030;-74
2022/03/08 10:27:03;;;;;;;8.07;4.33;;;;;;;14.14;22.77;101986.53;5214983;28;20386;-74
2022/03/08 10:29:37;;;;;;;13.50;3.63;;;;;;;13.97;23.21;102005.91;5218454;28;20729;-72
2022/03/08 10:32:16;;;;;;;7.63;4.57;;;;;;;13.99;23.35;101990.88;5216373;28;20515;-73
2022/03/08 10:34:52;;;;;;;9.07;4.33;;;;;;;14.69;22.49;101995.75;5213959;28;20033;-75
2022/03/08 10:37:24;;;;;;;19.73;5.17;;;;;;;13.87;23.86;101978.41;5208740;28;20036;-75
2022/03/08 10:39:59;;;;;;;6.80;4.50;;;;;;;13.17;23.96;101990.84;5210362;28;20037;-75
2022/03/08 10:42:34;;;;;;;7.53;3.83;;;;;;;12.78;24.89;101983.16;5219839;28;20040;-72
2022/03/08 10:45:14;;;;;;;8.03;4.33;;;;;;;12.88;24.41;101977.47;5227331;28;20384;-73
2022/03/08 10:47:51;;;;;;;5.47;4.20;;;;;;;12.40;25.03;101980.69;5228069;28;20057;-73
2022/03/08 10:50:30;;;;;;;6.43;4.70;;;;;;;11.70;26.20;101976.94;5229280;28;20029;-73
2022/03/08 10:53:04;;;;;;;8.27;4.37;;;;;;;12.02;26.45;101971.97;5231558;28;20029;-73
2022/03/08 10:55:39;;;;;;;6.70;5.03;;;;;;;11.85;26.20;101978.84;5232245;28;20024;-73
2022/03/08 10:58:12;;;;;;;9.57;4.50;;;;;;;11.28;26.65;101971.81;5230606;28;20499;-73
2022/03/08 11:00:51;;;;;;;8.53;4.03;;;;;;;11.93;26.56;101952.25;5232767;28;20049;-73
2022/03/08 11:03:25;;;;;;;6.43;4.10;;;;;;;11.67;26.57;101959.59;5233178;28;20114;-73
2022/03/08 11:06:04;;;;;;;6.70;4.93;;;;;;;12.13;26.96;101968.00;5232059;28;20120;-73
2022/03/08 11:08:36;;;;;;;7.10;4.30;;;;;;;11.51;26.90;101972.56;5233552;28;20033;-73
2022/03/08 11:11:08;;;;;;;7.57;4.57;;;;;;;11.41;27.14;101966.03;5231536;28;20021;-73
2022/03/08 11:13:40;;;;;;;7.87;4.20;;;;;;;10.83;28.10;101971.16;5233267;28;20033;-73
2022/03/08 11:16:11;;;;;;;6.60;4.57;;;;;;;10.76;28.54;101962.69;5237448;28;20085;-73
2022/03/08 11:18:50;;;;;;;10.23;4.20;;;;;;;10.62;28.22;101948.44;5233172;28;20033;-73
2022/03/08 11:21:23;;;;;;;10.53;4.83;;;;;;;11.13;28.09;101957.63;5232947;28;20385;-73
2022/03/08 11:23:54;;;;;;;16.23;4.70;;;;;;;10.98;27.73;101964.38;5232930;28;20046;-73
2022/03/08 11:26:26;;;;;;;9.20;5.00;;;;;;;10.98;27.86;101967.00;5232707;28;20029;-73
2022/03/08 11:28:58;;;;;;;8.27;4.20;;;;;;;11.02;27.97;101963.34;5230167;28;20516;-73
2022/03/08 11:31:34;;;;;;;10.80;4.47;;;;;;;11.40;27.70;101953.84;5232849;28;20087;-73
2022/03/08 11:34:18;;;;;;;11.50;5.00;;;;;;;11.83;26.90;101943.94;5232158;28;20043;-73
2022/03/08 11:37:01;;;;;;;18.60;5.05;;;;;;;11.85;27.04;101938.66;5232788;28;20022;-73
2022/03/08 11:39:39;;;;;;;7.17;4.67;;;;;;;11.46;27.47;101948.31;5232303;28;20044;-73
2022/03/08 11:42:31;;;;;;;6.53;5.00;;;;;;;10.94;27.66;101952.34;5231762;28;20026;-73
2022/03/08 11:45:09;;;;;;;15.03;5.27;;;;;;;10.56;28.18;101950.44;5230213;28;20558;-73
2022/03/08 11:47:46;;;;;;;5.73;4.30;;;;;;;10.63;28.56;101934.41;5232659;28;20041;-73
2022/03/08 11:50:24;;;;;;;11.23;4.93;;;;;;;11.09;28.06;101929.84;5231707;28;20029;-73